createdAt,value
2022-10-12T00:00:31.056Z,6.77
2022-10-12T00:02:57.810Z,6.71
2022-10-12T00:05:24.597Z,6.68
2022-10-12T00:07:51.321Z,6.62
2022-10-12T00:10:18.730Z,6.56
2022-10-12T00:12:45.554Z,6.54
2022-10-12T00:15:12.406Z,6.52
2022-10-12T00:17:39.598Z,6.46
2022-10-12T00:20:07.237Z,6.41
2022-10-12T00:22:34.214Z,6.35
2022-10-12T00:25:00.915Z,6.30
2022-10-12T00:27:27.741Z,6.27
2022-10-12T00:29:54.491Z,6.26
2022-10-12T00:32:21.355Z,6.25
2022-10-12T00:34:48.136Z,6.24
2022-10-12T00:37:14.924Z,6.22
2022-10-12T00:39:41.763Z,6.20
2022-10-12T00:42:12.088Z,6.21
2022-10-12T00:44:47.318Z,6.20
2022-10-12T00:47:37.431Z,6.19
2022-10-12T00:50:09.724Z,6.15
2022-10-12T00:53:08.924Z,6.14
2022-10-12T00:55:40.585Z,6.11
2022-10-12T00:58:08.957Z,6.08
2022-10-12T01:00:38.281Z,6.06
2022-10-12T01:03:08.047Z,6.04
2022-10-12T01:05:34.963Z,6.01
2022-10-12T01:08:02.872Z,5.99
2022-10-12T01:10:29.588Z,5.97
2022-10-12T01:12:56.547Z,5.98
2022-10-12T01:15:29.580Z,5.98
2022-10-12T01:18:02.354Z,5.97
2022-10-12T01:20:42.203Z,5.95
2022-10-12T01:23:28.924Z,5.89
2022-10-12T01:26:21.693Z,5.90
2022-10-12T01:28:51.331Z,5.89
2022-10-12T01:31:57.714Z,5.91
2022-10-12T01:34:44.757Z,5.87
2022-10-12T01:37:19.627Z,5.86
2022-10-12T01:39:54.725Z,5.85
2022-10-12T01:42:27.427Z,5.83
2022-10-12T01:45:08.742Z,5.81
2022-10-12T01:47:37.421Z,5.79
2022-10-12T01:50:08.186Z,5.76
2022-10-12T01:52:50.999Z,5.74
2022-10-12T01:55:41.732Z,5.72
2022-10-12T01:58:43.002Z,5.70
2022-10-12T02:01:30.381Z,5.68
2022-10-12T02:04:22.008Z,5.65
2022-10-12T02:06:54.005Z,5.61
2022-10-12T02:09:26.678Z,5.60
2022-10-12T02:11:58.518Z,5.60
2022-10-12T02:14:30.732Z,5.58
2022-10-12T02:17:01.920Z,5.61
2022-10-12T02:19:32.929Z,5.62
2022-10-12T02:22:03.101Z,5.60
2022-10-12T02:24:34.276Z,5.62
2022-10-12T02:27:01.936Z,5.58
2022-10-12T02:29:36.650Z,5.61
2022-10-12T02:32:20.551Z,5.61
2022-10-12T02:34:59.410Z,5.61
2022-10-12T02:37:46.723Z,5.61
2022-10-12T02:40:18.051Z,5.62
2022-10-12T02:43:09.393Z,5.63
2022-10-12T02:45:41.378Z,5.64
2022-10-12T02:48:11.953Z,5.65
2022-10-12T02:50:38.910Z,5.65
2022-10-12T02:53:06.147Z,5.68
2022-10-12T02:55:38.644Z,5.69
2022-10-12T02:58:05.467Z,5.71
2022-10-12T03:00:34.499Z,5.74
2022-10-12T03:03:01.224Z,5.75
2022-10-12T03:05:28.005Z,5.81
2022-10-12T03:07:54.736Z,5.88
2022-10-12T03:10:21.503Z,5.92
2022-10-12T03:12:50.326Z,5.94
2022-10-12T03:15:17.423Z,5.96
2022-10-12T03:17:44.214Z,5.97
2022-10-12T03:20:11.573Z,5.97
2022-10-12T03:22:38.324Z,5.97
2022-10-12T03:25:05.483Z,5.98
2022-10-12T03:27:32.248Z,5.99
2022-10-12T03:29:59.032Z,6.02
2022-10-12T03:32:26.269Z,6.05
2022-10-12T03:34:53.072Z,6.05
2022-10-12T03:37:19.824Z,6.06
2022-10-12T03:39:46.587Z,6.07
2022-10-12T03:42:14.101Z,6.07
2022-10-12T03:44:40.931Z,6.09
2022-10-12T03:47:07.685Z,6.09
2022-10-12T03:49:34.442Z,6.09
2022-10-12T03:52:01.205Z,6.10
2022-10-12T03:54:27.977Z,6.11
2022-10-12T03:56:54.725Z,6.11
2022-10-12T03:59:21.484Z,6.10
2022-10-12T04:01:48.443Z,6.13
2022-10-12T04:04:15.220Z,6.11
2022-10-12T04:06:42.094Z,6.13
2022-10-12T04:09:09.023Z,6.14
2022-10-12T04:11:35.825Z,6.12
2022-10-12T04:14:02.584Z,6.09
2022-10-12T04:16:31.123Z,6.10
2022-10-12T04:18:58.123Z,6.10
2022-10-12T04:21:26.107Z,6.07
2022-10-12T04:23:52.975Z,6.08
2022-10-12T04:26:19.758Z,6.08
2022-10-12T04:28:46.531Z,6.06
2022-10-12T04:31:13.384Z,6.05
2022-10-12T04:33:40.116Z,6.07
2022-10-12T04:36:07.741Z,6.08
2022-10-12T04:38:34.979Z,6.11
2022-10-12T04:41:01.782Z,6.14
2022-10-12T04:43:28.513Z,6.17
2022-10-12T04:45:59.907Z,6.18
2022-10-12T04:48:27.348Z,6.23
2022-10-12T04:50:54.196Z,6.33
2022-10-12T04:53:21.184Z,6.41
2022-10-12T04:55:47.981Z,6.46
2022-10-12T04:58:15.005Z,6.53
2022-10-12T05:00:41.843Z,6.61
2022-10-12T05:03:08.576Z,6.64
2022-10-12T05:05:36.258Z,6.65
2022-10-12T05:08:04.857Z,6.70
2022-10-12T05:10:31.835Z,6.77
2022-10-12T05:12:58.949Z,6.80
2022-10-12T05:15:26.378Z,6.88
2022-10-12T05:17:53.227Z,7.00
2022-10-12T05:20:20.094Z,7.14
2022-10-12T05:22:46.907Z,7.27
2022-10-12T05:25:13.857Z,7.42
2022-10-12T05:27:40.898Z,7.54
2022-10-12T05:30:09.169Z,7.60
2022-10-12T05:32:36.018Z,7.71
2022-10-12T05:35:03.313Z,7.92
2022-10-12T05:37:30.177Z,8.18
2022-10-12T05:39:57.161Z,8.38
2022-10-12T05:42:23.870Z,8.61
2022-10-12T05:44:50.586Z,8.78
2022-10-12T05:47:17.387Z,8.95
2022-10-12T05:49:44.274Z,9.10
2022-10-12T05:52:11.083Z,9.26
2022-10-12T05:54:37.877Z,9.46
2022-10-12T05:57:04.788Z,9.66
2022-10-12T05:59:31.570Z,9.86
2022-10-12T06:01:58.414Z,10.07
2022-10-12T06:04:25.230Z,10.33
2022-10-12T06:06:52.042Z,10.59
2022-10-12T06:09:19.204Z,10.91
2022-10-12T06:11:45.956Z,11.17
2022-10-12T06:14:12.801Z,11.50
2022-10-12T06:16:39.690Z,11.57
2022-10-12T06:19:06.606Z,11.69
2022-10-12T06:21:34.566Z,11.77
2022-10-12T06:24:01.766Z,11.82
2022-10-12T06:26:28.557Z,11.95
2022-10-12T06:28:55.566Z,12.03
2022-10-12T06:31:23.199Z,12.23
2022-10-12T06:33:51.095Z,12.50
2022-10-12T06:36:18.227Z,12.64
2022-10-12T06:38:45.121Z,12.83
2022-10-12T06:41:12.140Z,13.09
2022-10-12T06:43:38.937Z,13.48
2022-10-12T06:46:05.879Z,13.76
2022-10-12T06:48:32.638Z,13.96
2022-10-12T06:50:59.696Z,14.14
2022-10-12T06:53:28.893Z,14.37
2022-10-12T06:55:55.843Z,14.57
2022-10-12T06:58:22.645Z,14.73
2022-10-12T07:00:49.525Z,15.18
2022-10-12T07:03:17.771Z,15.51
2022-10-12T07:05:44.543Z,16.02
2022-10-12T07:08:11.349Z,16.72
2022-10-12T07:10:38.120Z,17.36
2022-10-12T07:13:05.145Z,17.60
2022-10-12T07:15:31.917Z,18.19
2022-10-12T07:17:58.757Z,18.56
2022-10-12T07:20:25.563Z,18.99
2022-10-12T07:22:53.394Z,19.57
2022-10-12T07:25:22.256Z,20.11
2022-10-12T07:27:49.742Z,20.66
2022-10-12T07:30:16.741Z,21.04
2022-10-12T07:32:44.676Z,21.28
2022-10-12T07:35:11.495Z,21.54
2022-10-12T07:37:38.717Z,21.74
2022-10-12T07:40:06.253Z,21.86
2022-10-12T07:42:33.186Z,22.13
2022-10-12T07:47:26.978Z,22.46
2022-10-12T07:49:53.727Z,22.73
2022-10-12T07:52:20.582Z,22.97
2022-10-12T07:54:47.409Z,23.46
2022-10-12T07:57:14.224Z,23.71
2022-10-12T07:59:40.986Z,23.69
2022-10-12T08:02:07.838Z,23.66
2022-10-12T08:04:34.626Z,23.61
2022-10-12T08:07:01.384Z,23.58
2022-10-12T08:09:28.364Z,23.82
2022-10-12T08:11:56.434Z,24.21
2022-10-12T08:14:23.487Z,24.53
2022-10-12T08:16:50.253Z,24.78
2022-10-12T08:19:19.164Z,24.87
2022-10-12T08:21:46.244Z,24.74
2022-10-12T08:24:14.413Z,25.07
2022-10-12T08:26:41.220Z,25.32
2022-10-12T08:29:08.597Z,25.52
2022-10-12T08:31:36.105Z,25.64
2022-10-12T08:34:03.967Z,25.71
2022-10-12T08:36:30.946Z,25.80
2022-10-12T08:38:58.073Z,26.01
2022-10-12T08:41:55.231Z,26.33
2022-10-12T08:44:43.331Z,26.39
2022-10-12T08:47:18.261Z,26.34
2022-10-12T08:49:49.953Z,26.32
2022-10-12T08:52:48.836Z,26.65
2022-10-12T08:55:23.618Z,27.06
2022-10-12T08:57:50.481Z,27.10
2022-10-12T09:00:18.108Z,27.12
2022-10-12T09:03:10.305Z,27.23
2022-10-12T09:06:38.511Z,27.32
2022-10-12T09:09:14.303Z,27.33
2022-10-12T09:12:08.583Z,27.26
2022-10-12T09:14:39.388Z,27.42
2022-10-12T09:17:23.872Z,27.74
2022-10-12T09:20:01.366Z,27.98
2022-10-12T09:22:30.445Z,27.89
2022-10-12T09:24:59.229Z,28.28
2022-10-12T09:27:30.883Z,28.51
2022-10-12T09:30:03.448Z,28.91
2022-10-12T09:32:48.774Z,29.12
2022-10-12T09:35:16.592Z,29.11
2022-10-12T09:37:49.510Z,29.11
2022-10-12T09:40:27.628Z,29.07
2022-10-12T09:42:56.011Z,29.01
2022-10-12T09:45:23.451Z,29.12
2022-10-12T09:48:16.865Z,29.28
2022-10-12T09:50:49.073Z,29.62
2022-10-12T09:53:41.426Z,29.91
2022-10-12T09:56:11.830Z,30.00
2022-10-12T09:58:49.843Z,30.26
2022-10-12T10:01:22.020Z,30.09
2022-10-12T10:04:08.830Z,29.27
2022-10-12T10:06:38.085Z,28.77
2022-10-12T10:09:06.201Z,28.70
2022-10-12T10:11:33.326Z,28.99
2022-10-12T10:14:01.810Z,29.25
2022-10-12T10:16:30.669Z,29.62
2022-10-12T10:19:00.792Z,29.57
2022-10-12T10:21:34.141Z,29.61
2022-10-12T10:24:03.749Z,29.41
2022-10-12T10:26:52.046Z,28.87
2022-10-12T10:29:21.776Z,28.18
2022-10-12T10:31:48.839Z,27.47
2022-10-12T10:34:18.577Z,26.75
2022-10-12T10:36:47.138Z,26.06
2022-10-12T10:39:47.364Z,24.98
2022-10-12T10:42:24.489Z,24.81
2022-10-12T10:44:56.525Z,25.19
2022-10-12T10:47:23.453Z,25.91
2022-10-12T10:49:55.918Z,26.75
2022-10-12T10:52:32.260Z,27.23
2022-10-12T10:55:48.481Z,27.22
2022-10-12T10:58:29.283Z,26.65
2022-10-12T11:01:02.264Z,26.29
2022-10-12T11:03:51.497Z,25.67
2022-10-12T11:06:42.222Z,25.14
2022-10-12T11:09:30.922Z,23.75
2022-10-12T11:12:06.851Z,22.95
2022-10-12T11:14:52.215Z,23.06
2022-10-12T11:17:27.015Z,23.44
2022-10-12T11:20:25.462Z,23.87
2022-10-12T11:23:01.804Z,23.75
2022-10-12T11:26:05.820Z,23.40
2022-10-12T11:28:33.688Z,22.95
2022-10-12T11:31:02.509Z,22.44
2022-10-12T11:33:54.385Z,21.66
2022-10-12T11:36:24.887Z,21.34
2022-10-12T11:38:57.012Z,20.97
2022-10-12T11:42:09.789Z,20.58
2022-10-12T11:44:43.712Z,20.08
2022-10-12T11:47:22.736Z,19.72
2022-10-12T11:50:01.804Z,19.42
2022-10-12T11:52:44.631Z,18.85
2022-10-12T11:55:29.962Z,18.64
2022-10-12T11:58:01.660Z,18.34
2022-10-12T12:00:54.282Z,18.46
2022-10-12T12:03:31.169Z,19.27
2022-10-12T12:06:30.040Z,20.16
2022-10-12T12:08:56.898Z,20.30
2022-10-12T12:11:29.507Z,20.25
2022-10-12T12:14:14.932Z,20.29
2022-10-12T12:16:44.796Z,20.09
2022-10-12T12:19:34.189Z,19.77
2022-10-12T12:22:13.240Z,19.54
2022-10-12T12:24:41.630Z,19.19
2022-10-12T12:27:33.716Z,18.74
2022-10-12T12:30:02.792Z,18.35
2022-10-12T12:32:44.743Z,17.91
2022-10-12T12:35:25.860Z,17.53
2022-10-12T12:38:14.238Z,17.29
2022-10-12T12:40:53.960Z,17.11
2022-10-12T12:43:29.624Z,16.98
2022-10-12T12:46:09.013Z,16.92
2022-10-12T12:48:55.992Z,16.96
2022-10-12T12:51:37.781Z,17.00
2022-10-12T12:54:21.792Z,17.14
2022-10-12T12:57:07.481Z,17.34
2022-10-12T12:59:49.175Z,17.50
2022-10-12T13:02:50.633Z,17.62
2022-10-12T13:05:34.602Z,17.82
2022-10-12T13:08:07.658Z,17.79
2022-10-12T13:11:04.427Z,17.77
2022-10-12T13:13:49.861Z,17.90
2022-10-12T13:19:35.599Z,17.89
2022-10-12T13:22:06.638Z,17.70
2022-10-12T13:24:46.826Z,17.57
2022-10-12T13:27:18.008Z,17.34
2022-10-12T13:30:04.474Z,17.01
2022-10-12T13:32:40.509Z,16.59
2022-10-12T13:35:29.380Z,16.22
2022-10-12T13:38:19.887Z,15.91
2022-10-12T13:40:53.701Z,15.68
2022-10-12T13:43:42.193Z,15.52
2022-10-12T13:46:34.045Z,15.46
2022-10-12T13:49:02.063Z,15.44
2022-10-12T13:51:31.011Z,15.48
2022-10-12T13:53:58.042Z,15.42
2022-10-12T13:56:30.268Z,15.24
2022-10-12T13:59:00.513Z,15.02
2022-10-12T14:01:27.641Z,14.80
2022-10-12T14:04:05.669Z,14.53
2022-10-12T14:06:35.502Z,14.36
2022-10-12T14:09:17.609Z,14.17
2022-10-12T14:11:45.469Z,14.03
2022-10-12T14:14:20.662Z,13.89
2022-10-12T14:16:49.973Z,13.80
2022-10-12T14:19:31.248Z,13.75
2022-10-12T14:22:00.436Z,13.75
2022-10-12T14:24:27.340Z,13.68
2022-10-12T14:27:05.981Z,13.62
2022-10-12T14:29:40.542Z,13.58
2022-10-12T14:32:10.158Z,13.50
2022-10-12T14:34:41.860Z,13.45
2022-10-12T14:37:08.684Z,13.36
2022-10-12T14:39:36.661Z,13.23
2022-10-12T14:42:19.222Z,13.09
2022-10-12T14:44:46.070Z,12.88
2022-10-12T14:47:39.814Z,12.66
2022-10-12T14:50:09.774Z,12.47
2022-10-12T14:52:45.220Z,12.26
2022-10-12T14:55:18.090Z,12.07
2022-10-12T14:57:45.547Z,11.85
2022-10-12T15:00:28.145Z,11.60
2022-10-12T15:02:55.071Z,11.38
2022-10-12T15:05:24.477Z,11.17
2022-10-12T15:07:52.076Z,11.00
2022-10-12T15:10:22.627Z,10.89
2022-10-12T15:12:50.267Z,10.74
2022-10-12T15:15:29.001Z,10.62
2022-10-12T15:17:56.848Z,10.49
2022-10-12T15:20:23.859Z,10.38
2022-10-12T15:22:50.730Z,10.24
2022-10-12T15:25:37.709Z,10.10
2022-10-12T15:28:04.726Z,9.96
2022-10-12T15:30:32.418Z,9.83
2022-10-12T15:32:59.437Z,9.72
2022-10-12T15:35:29.197Z,9.59
2022-10-12T15:37:56.446Z,9.45
2022-10-12T15:40:24.175Z,9.32
2022-10-12T15:42:51.025Z,9.19
2022-10-12T15:45:22.483Z,9.05
2022-10-12T15:47:50.717Z,8.93
2022-10-12T15:50:20.359Z,8.84
2022-10-12T15:52:47.452Z,8.72
2022-10-12T15:55:29.477Z,8.63
2022-10-12T15:57:57.056Z,8.51
2022-10-12T16:00:27.258Z,8.42
2022-10-12T16:02:55.540Z,8.33
2022-10-12T16:05:25.576Z,8.28
2022-10-12T16:07:52.742Z,8.24
2022-10-12T16:10:23.476Z,8.19
2022-10-12T16:12:52.526Z,8.14
2022-10-12T16:15:31.599Z,8.12
2022-10-12T16:18:02.465Z,8.08
2022-10-12T16:20:31.348Z,8.03
2022-10-12T16:22:59.671Z,7.98
2022-10-12T16:25:27.661Z,7.91
2022-10-12T16:27:56.427Z,7.82
2022-10-12T16:30:24.356Z,7.76
2022-10-12T16:32:51.613Z,7.69
2022-10-12T16:35:18.599Z,7.60
2022-10-12T16:37:45.374Z,7.47
2022-10-12T16:40:12.616Z,7.36
2022-10-12T16:42:39.871Z,7.24
2022-10-12T16:45:07.367Z,7.13
2022-10-12T16:47:37.629Z,7.03
2022-10-12T16:50:06.997Z,6.92
2022-10-12T16:52:33.956Z,6.79
2022-10-12T16:55:00.890Z,6.72
2022-10-12T16:57:27.773Z,6.64
2022-10-12T16:59:54.766Z,6.58
2022-10-12T17:02:21.642Z,6.53
2022-10-12T17:04:48.482Z,6.51
2022-10-12T17:07:15.728Z,6.47
2022-10-12T17:09:42.993Z,6.42
2022-10-12T17:12:09.843Z,6.38
2022-10-12T17:14:36.702Z,6.37
2022-10-12T17:17:04.206Z,6.34
2022-10-12T17:19:40.073Z,6.31
2022-10-12T17:22:09.793Z,6.27
2022-10-12T17:24:38.763Z,6.24
2022-10-12T17:27:08.082Z,6.22
2022-10-12T17:29:40.237Z,6.19
2022-10-12T17:32:08.432Z,6.14
2022-10-12T17:34:43.499Z,6.09
2022-10-12T17:37:13.812Z,6.00
2022-10-12T17:39:44.078Z,5.89
2022-10-12T17:42:11.591Z,5.76
2022-10-12T17:44:38.399Z,5.60
2022-10-12T17:47:05.182Z,5.46
2022-10-12T17:49:32.274Z,5.32
2022-10-12T17:51:59.097Z,5.21
2022-10-12T17:54:26.813Z,5.10
2022-10-12T17:56:56.907Z,5.03
2022-10-12T17:59:24.251Z,4.96
2022-10-12T18:01:52.069Z,4.85
2022-10-12T18:04:20.055Z,4.74
2022-10-12T18:06:46.927Z,4.62
2022-10-12T18:09:13.804Z,4.54
2022-10-12T18:11:40.684Z,4.47
2022-10-12T18:14:09.586Z,4.41
2022-10-12T18:16:36.846Z,4.38
2022-10-12T18:19:05.291Z,4.40
2022-10-12T18:21:33.260Z,4.41
2022-10-12T18:24:12.266Z,4.37
2022-10-12T18:26:43.351Z,4.31
2022-10-12T18:29:10.230Z,4.24
2022-10-12T18:31:37.139Z,4.18
2022-10-12T18:34:04.889Z,4.15
2022-10-12T18:36:31.727Z,4.10
2022-10-12T18:39:01.368Z,4.07
2022-10-12T18:41:28.570Z,4.02
2022-10-12T18:43:59.529Z,3.98
2022-10-12T18:46:28.441Z,4.03
2022-10-12T18:48:56.045Z,4.01
2022-10-12T18:51:29.482Z,3.95
2022-10-12T18:53:57.193Z,3.87
2022-10-12T18:56:26.047Z,3.80
2022-10-12T18:58:53.190Z,3.78
2022-10-12T19:01:22.767Z,3.75
2022-10-12T19:03:49.630Z,3.68
2022-10-12T19:06:18.949Z,3.60
2022-10-12T19:08:47.983Z,3.56
2022-10-12T19:11:17.550Z,3.52
2022-10-12T19:13:50.731Z,3.49
2022-10-12T19:16:18.035Z,3.46
2022-10-12T19:18:44.890Z,3.42
2022-10-12T19:21:14.620Z,3.42
2022-10-12T19:23:42.283Z,3.39
2022-10-12T19:26:15.221Z,3.38
2022-10-12T19:28:42.103Z,3.36
2022-10-12T19:31:14.290Z,3.34
2022-10-12T19:33:42.391Z,3.29
2022-10-12T19:36:10.829Z,3.23
2022-10-12T19:38:38.466Z,3.19
2022-10-12T19:41:06.491Z,3.17
2022-10-12T19:43:36.276Z,3.19
2022-10-12T19:46:07.861Z,3.20
2022-10-12T19:48:35.839Z,3.20
2022-10-12T19:51:10.094Z,3.20
2022-10-12T19:53:37.685Z,3.25
2022-10-12T19:56:07.700Z,3.25
2022-10-12T19:58:34.986Z,3.25
2022-10-12T20:01:12.939Z,3.25
2022-10-12T20:03:44.093Z,3.27
2022-10-12T20:06:13.682Z,3.28
2022-10-12T20:08:42.084Z,3.30
2022-10-12T20:11:13.089Z,3.33
2022-10-12T20:13:42.505Z,3.35
2022-10-12T20:16:09.335Z,3.37
2022-10-12T20:18:36.646Z,3.38
2022-10-12T20:21:08.616Z,3.38
2022-10-12T20:23:36.421Z,3.37
2022-10-12T20:26:09.542Z,3.35
2022-10-12T20:28:37.921Z,3.32
2022-10-12T20:31:05.882Z,3.31
2022-10-12T20:33:34.563Z,3.29
2022-10-12T20:36:01.418Z,3.24
2022-10-12T20:38:28.562Z,3.22
2022-10-12T20:41:07.145Z,3.17
2022-10-12T20:43:34.396Z,3.11
2022-10-12T20:46:05.336Z,3.07
2022-10-12T20:48:32.823Z,3.04
2022-10-12T20:50:59.749Z,2.98
2022-10-12T20:53:26.519Z,2.89
2022-10-12T20:55:54.825Z,2.83
2022-10-12T20:58:26.947Z,2.77
2022-10-12T21:01:09.549Z,2.71
2022-10-12T21:03:37.005Z,2.67
2022-10-12T21:06:12.990Z,2.64
2022-10-12T21:08:40.077Z,2.61
2022-10-12T21:11:06.928Z,2.59
2022-10-12T21:13:39.192Z,2.61
2022-10-12T21:16:06.315Z,2.66
2022-10-12T21:18:37.765Z,2.64
2022-10-12T21:21:16.717Z,2.59
2022-10-12T21:23:45.309Z,2.56
2022-10-12T21:26:14.551Z,2.57
2022-10-12T21:28:41.428Z,2.61
2022-10-12T21:31:08.756Z,2.63
2022-10-12T21:33:39.095Z,2.64
2022-10-12T21:36:27.084Z,2.61
2022-10-12T21:38:54.051Z,2.60
2022-10-12T21:41:23.996Z,2.59
2022-10-12T21:43:51.899Z,2.60
2022-10-12T21:46:27.709Z,2.64
2022-10-12T21:48:55.036Z,2.71
2022-10-12T21:51:23.497Z,2.76
2022-10-12T21:53:50.741Z,2.78
2022-10-12T21:56:22.895Z,2.79
2022-10-12T21:58:50.599Z,2.79
2022-10-12T22:01:22.658Z,2.74
2022-10-12T22:03:59.652Z,2.67
2022-10-12T22:06:27.906Z,2.58
2022-10-12T22:09:16.938Z,2.50
2022-10-12T22:11:44.400Z,2.43
2022-10-12T22:14:17.465Z,2.39
2022-10-12T22:16:44.957Z,2.33
2022-10-12T22:19:15.404Z,2.32
2022-10-12T22:21:42.348Z,2.29
2022-10-12T22:24:09.467Z,2.27
2022-10-12T22:26:36.782Z,2.25
2022-10-12T22:29:07.482Z,2.24
2022-10-12T22:31:35.446Z,2.22
2022-10-12T22:34:02.445Z,2.20
2022-10-12T22:36:33.211Z,2.18
2022-10-12T22:39:02.986Z,2.17
2022-10-12T22:41:29.865Z,2.21
2022-10-12T22:43:57.070Z,2.24
2022-10-12T22:46:25.519Z,2.29
2022-10-12T22:48:53.652Z,2.28
2022-10-12T22:51:27.155Z,2.23
2022-10-12T22:53:54.035Z,2.22
2022-10-12T22:56:20.943Z,2.23
2022-10-12T22:58:49.046Z,2.21
2022-10-12T23:01:17.698Z,2.19
2022-10-12T23:03:45.574Z,2.20
2022-10-12T23:06:15.305Z,2.23
2022-10-12T23:08:42.219Z,2.23
2022-10-12T23:11:12.210Z,2.24
2022-10-12T23:13:41.117Z,2.25
2022-10-12T23:16:13.905Z,2.27
2022-10-12T23:18:40.886Z,2.26
2022-10-12T23:21:11.166Z,2.23
2022-10-12T23:23:39.993Z,2.28
2022-10-12T23:26:10.065Z,2.34
2022-10-12T23:28:37.102Z,2.37
2022-10-12T23:31:08.470Z,2.37
2022-10-12T23:33:35.511Z,2.40
2022-10-12T23:36:11.834Z,2.45
2022-10-12T23:38:40.749Z,2.53
2022-10-12T23:41:08.563Z,2.57
2022-10-12T23:43:36.169Z,2.67
2022-10-12T23:46:04.826Z,2.77
2022-10-12T23:48:32.174Z,2.84
2022-10-12T23:51:00.144Z,2.90
2022-10-12T23:53:27.459Z,2.97
2022-10-12T23:55:54.294Z,3.02
2022-10-12T23:58:21.238Z,3.05
